Terminal Aerodrome Forecast
Issued by NWS Spokane, WA

Current Version | Previous Version | Text Only | Print | Product List | Glossary On
Versions: 1 2 3 4 5 6 7 8 9 10 11 12 13 14 15 16 17 18 19 20 21 22 23 24 25 26 27 28 29 30 31 32 33 34 35 36 37 38
000
FTUS46 KOTX 021720
TAFLWS
TAF
KLWS 021720Z 0218/0318 06007KT P6SM VCSH SCT060 BKN080
     FM022000 32009KT P6SM VCSH SCT050 BKN080 OVC100
     FM030600 18005KT P6SM SCT060 BKN130
     FM031200 13003KT P6SM SCT015 BKN050 OVC120
     FM031700 07003KT P6SM SCT060 SCT150=

USA.gov is the U.S. government's official web portal to all federal, state and local government web resources and services.